Time;durP1;ratioP1;P1;durP2;ratioP2;P2;SDS_P1;SDS_P2;PMS_P1;PMS_P2;Temp;Humidity;BMP_temperature;BMP_pressure;BME280_temperature;BME280_humidity;BME280_pressure;Samples;Min_cycle;Max_cycle;Signal;HPM_P1;HPM_P2
2022/11/27 00:01:26;;;;;;;36.42;20.60;;;;;;;3.87;84.02;98371.14;1707625;83;25938;-74
2022/11/27 00:03:55;;;;;;;33.18;20.02;;;;;;;3.86;83.98;98370.33;1708685;83;28197;-73
2022/11/27 00:06:25;;;;;;;32.10;19.37;;;;;;;3.81;83.82;98373.08;1721105;82;26553;-75
2022/11/27 00:08:52;;;;;;;28.98;18.57;;;;;;;3.80;83.90;98372.72;1720703;83;25917;-74
2022/11/27 00:11:22;;;;;;;29.80;19.20;;;;;;;3.80;83.92;98374.91;1726370;82;26064;-72
2022/11/27 00:13:50;;;;;;;33.08;18.87;;;;;;;3.79;83.87;98367.88;1732529;82;25483;-73
2022/11/27 00:16:19;;;;;;;34.00;18.42;;;;;;;3.77;83.78;98368.51;1743845;81;28220;-74
2022/11/27 00:18:47;;;;;;;29.82;18.75;;;;;;;3.73;83.70;98372.48;1744787;82;25479;-73
2022/11/27 00:21:22;;;;;;;31.45;17.50;;;;;;;3.69;83.69;98372.41;1720051;82;25788;-73
2022/11/27 00:23:51;;;;;;;26.10;15.85;;;;;;;3.67;83.75;98367.70;1729995;82;25981;-75
2022/11/27 00:26:19;;;;;;;24.10;15.45;;;;;;;3.64;83.73;98370.65;1740922;82;25897;-73
2022/11/27 00:28:45;;;;;;;24.90;14.68;;;;;;;3.61;83.63;98370.97;1715010;82;27537;-74
2022/11/27 00:31:17;;;;;;;24.77;15.18;;;;;;;3.61;83.73;98370.97;1716012;82;25261;-73
2022/11/27 00:33:44;;;;;;;27.55;16.57;;;;;;;3.62;83.75;98368.64;1733806;82;25728;-73
2022/11/27 00:36:12;;;;;;;24.27;14.73;;;;;;;3.62;83.70;98372.65;1735343;82;26048;-73
2022/11/27 00:38:39;;;;;;;21.40;13.68;;;;;;;3.61;83.63;98380.31;1735581;82;25669;-72
2022/11/27 00:41:10;;;;;;;26.95;15.63;;;;;;;3.60;83.63;98374.62;1733195;82;27374;-75
2022/11/27 00:43:38;;;;;;;22.67;14.25;;;;;;;3.58;83.61;98369.91;1716364;82;25848;-73
2022/11/27 00:46:05;;;;;;;24.95;15.65;;;;;;;3.56;83.54;98365.20;1731779;82;25684;-73
2022/11/27 00:48:32;;;;;;;22.80;14.58;;;;;;;3.56;83.59;98369.20;1744634;82;26842;-73
2022/11/27 00:51:04;;;;;;;26.30;15.10;;;;;;;3.54;83.55;98364.50;1730461;82;25781;-73
2022/11/27 00:53:32;;;;;;;29.48;15.93;;;;;;;3.52;83.55;98364.64;1736067;82;27606;-73
2022/11/27 00:56:00;;;;;;;28.23;16.60;;;;;;;3.50;83.53;98362.59;1692422;83;25805;-73
2022/11/27 00:58:29;;;;;;;26.27;15.85;;;;;;;3.49;83.53;98368.95;1738572;81;25798;-73
2022/11/27 01:01:03;;;;;;;26.23;14.60;;;;;;;3.49;83.58;98360.10;1728856;82;26023;-75
2022/11/27 01:03:31;;;;;;;24.85;15.25;;;;;;;3.49;83.58;98358.77;1726731;82;25779;-72
2022/11/27 01:06:04;;;;;;;27.77;15.70;;;;;;;3.48;83.56;98360.59;1737502;82;27366;-73
2022/11/27 01:08:32;;;;;;;28.57;16.52;;;;;;;3.47;83.57;98358.06;1717356;82;26100;-73
2022/11/27 01:10:58;;;;;;;30.27;17.77;;;;;;;3.44;83.54;98351.67;1738893;82;25878;-74
2022/11/27 01:13:33;;;;;;;28.85;16.85;;;;;;;3.44;83.60;98351.17;1717779;81;26798;-73
2022/11/27 01:16:07;;;;;;;28.90;17.00;;;;;;;3.43;83.56;98355.32;1680544;85;25886;-73
2022/11/27 01:18:35;;;;;;;26.48;17.20;;;;;;;3.43;83.58;98352.66;1686419;85;27558;-73
2022/11/27 01:21:04;;;;;;;24.77;16.07;;;;;;;3.41;83.60;98349.28;1686373;85;25863;-75
2022/11/27 01:23:31;;;;;;;23.42;15.50;;;;;;;3.34;83.49;98348.18;1686484;85;25776;-76
2022/11/27 01:26:02;;;;;;;24.90;15.93;;;;;;;3.20;83.42;98344.97;1686595;85;25997;-73
2022/11/27 01:28:29;;;;;;;23.42;15.28;;;;;;;3.15;83.56;98348.54;1667517;85;25581;-73
2022/11/27 01:30:56;;;;;;;22.85;14.78;;;;;;;3.10;83.68;98353.48;1686536;85;28282;-72
2022/11/27 01:33:23;;;;;;;24.23;14.38;;;;;;;3.10;83.80;98356.14;1686089;85;25482;-73
2022/11/27 01:36:01;;;;;;;26.95;14.58;;;;;;;3.12;83.86;98358.19;1686492;85;25748;-73
2022/11/27 01:38:29;;;;;;;23.83;14.87;;;;;;;3.09;83.83;98357.13;1686402;85;26923;-73
2022/11/27 01:40:59;;;;;;;22.02;14.38;;;;;;;3.09;83.90;98354.45;1686585;85;25811;-73
2022/11/27 01:43:40;;;;;;;20.92;13.65;;;;;;;3.08;83.91;98347.44;1686374;85;27467;-72
2022/11/27 01:46:31;;;;;;;21.60;13.62;;;;;;;3.09;83.97;98354.45;1641442;87;25841;-73
2022/11/27 01:49:15;;;;;;;19.82;13.83;;;;;;;3.12;83.97;98351.52;1655426;86;25792;-73
2022/11/27 01:51:49;;;;;;;20.92;13.13;;;;;;;3.13;83.99;98351.87;1632205;87;26004;-73
2022/11/27 01:54:18;;;;;;;23.20;14.28;;;;;;;3.15;83.98;98347.20;1568682;91;26796;-74
2022/11/27 01:56:48;;;;;;;22.75;13.20;;;;;;;3.19;83.94;98349.11;1546959;92;27529;-75
2022/11/27 01:59:16;;;;;;;22.15;13.88;;;;;;;3.16;83.90;98351.56;1545995;92;25712;-75
2022/11/27 02:01:43;;;;;;;22.02;13.55;;;;;;;3.17;83.94;98348.41;1546876;92;25890;-73
2022/11/27 02:04:09;;;;;;;22.22;13.32;;;;;;;3.18;84.00;98352.27;1547489;92;25998;-74
2022/11/27 02:06:36;;;;;;;22.00;13.62;;;;;;;3.19;83.94;98349.95;1547441;92;25989;-73
2022/11/27 02:09:03;;;;;;;21.02;13.88;;;;;;;3.17;83.89;98358.58;1547510;92;27450;-73
2022/11/27 02:11:46;;;;;;;20.80;13.50;;;;;;;3.15;83.90;98360.55;1547725;91;25808;-73
2022/11/27 02:14:36;;;;;;;22.22;13.70;;;;;;;3.14;83.91;98362.86;1574020;91;25858;-73
2022/11/27 02:17:23;;;;;;;19.75;12.98;;;;;;;3.14;84.00;98362.86;1573167;91;26352;-73
2022/11/27 02:20:02;;;;;;;20.88;13.58;;;;;;;3.14;84.04;98364.20;1571322;91;26512;-73
2022/11/27 02:22:40;;;;;;;20.97;12.88;;;;;;;3.15;84.07;98365.88;1526457;93;27408;-73
2022/11/27 02:25:23;;;;;;;20.97;13.20;;;;;;;3.13;83.99;98365.70;1522125;93;25854;-73
2022/11/27 02:28:13;;;;;;;20.35;13.13;;;;;;;3.09;83.97;98365.13;1521356;93;25797;-73
2022/11/27 02:30:46;;;;;;;19.50;12.35;;;;;;;3.05;83.99;98357.53;1529470;91;26067;-73
2022/11/27 02:33:15;;;;;;;19.15;12.88;;;;;;;3.05;84.12;98361.05;1528628;92;25419;-73
2022/11/27 02:36:02;;;;;;;20.77;14.65;;;;;;;3.07;84.20;98363.58;1546159;91;27404;-74
2022/11/27 02:38:37;;;;;;;21.80;14.65;;;;;;;3.07;84.18;98364.42;1528792;92;25598;-72
2022/11/27 02:41:29;;;;;;;22.27;13.88;;;;;;;3.06;84.21;98357.89;1551853;89;25878;-73
2022/11/27 02:43:58;;;;;;;20.45;12.63;;;;;;;3.03;84.15;98357.67;1606358;89;33413;-74
2022/11/27 02:46:27;;;;;;;22.58;14.15;;;;;;;3.02;84.20;98362.66;1604819;88;25766;-72
2022/11/27 02:49:05;;;;;;;20.27;13.85;;;;;;;3.04;84.27;98359.85;1604766;88;27418;-73
2022/11/27 02:51:42;;;;;;;17.07;12.65;;;;;;;3.03;84.23;98363.01;1604699;87;26535;-73
2022/11/27 02:54:13;;;;;;;23.55;13.50;;;;;;;3.04;84.26;98359.85;1604684;89;25779;-73
2022/11/27 02:56:42;;;;;;;19.40;14.10;;;;;;;3.04;84.35;98362.03;1620937;88;26047;-73
2022/11/27 02:59:12;;;;;;;20.65;13.40;;;;;;;3.05;84.42;98367.72;1622545;87;25808;-72
2022/11/27 03:01:43;;;;;;;20.08;12.95;;;;;;;3.09;84.47;98365.62;1622990;88;27450;-73
2022/11/27 03:04:15;;;;;;;22.75;14.68;;;;;;;3.09;84.37;98367.80;1571795;91;25884;-73
2022/11/27 03:06:49;;;;;;;28.73;16.87;;;;;;;3.09;84.39;98371.80;1545770;91;34994;-73
2022/11/27 03:09:27;;;;;;;31.15;19.20;;;;;;;3.11;84.40;98373.84;1543713;91;26764;-73
2022/11/27 03:11:55;;;;;;;28.25;17.98;;;;;;;3.10;84.26;98372.15;1498041;94;25850;-75
2022/11/27 03:14:23;;;;;;;29.12;16.30;;;;;;;3.04;84.18;98376.70;1499560;94;27484;-75
2022/11/27 03:17:29;;;;;;;24.00;15.95;;;;;;;3.03;84.25;98371.50;1499558;94;25861;-72
2022/11/27 03:20:23;;;;;;;25.92;15.98;;;;;;;3.05;84.31;98377.55;1537964;91;25876;-75
2022/11/27 03:22:49;;;;;;;25.48;16.15;;;;;;;3.02;84.31;98371.17;1506188;94;26083;-73
2022/11/27 03:25:16;;;;;;;27.17;16.60;;;;;;;3.00;84.37;98373.98;1503830;94;25834;-73
2022/11/27 03:27:50;;;;;;;26.60;16.25;;;;;;;3.01;84.38;98381.49;1506738;94;27452;-73
2022/11/27 03:30:17;;;;;;;28.17;17.70;;;;;;;2.99;84.39;98373.62;1459799;97;25954;-74
2022/11/27 03:32:44;;;;;;;27.80;18.27;;;;;;;3.01;84.42;98381.49;1459895;97;25848;-73
2022/11/27 03:35:14;;;;;;;30.90;19.82;;;;;;;3.02;84.47;98378.66;1459916;97;25996;-76
2022/11/27 03:37:41;;;;;;;28.98;18.57;;;;;;;3.06;84.49;98380.56;1461443;95;25911;-73
2022/11/27 03:40:10;;;;;;;28.55;19.45;;;;;;;3.06;84.37;98381.41;1491101;94;28306;-74
2022/11/27 03:43:07;;;;;;;29.40;19.92;;;;;;;3.02;84.22;98380.52;1500229;94;26051;-75
2022/11/27 03:45:54;;;;;;;32.10;20.90;;;;;;;3.02;84.28;98381.84;1500574;94;25916;-73
2022/11/27 03:48:37;;;;;;;36.28;21.77;;;;;;;3.02;84.35;98382.66;1497994;94;26876;-74
2022/11/27 03:51:20;;;;;;;31.95;19.98;;;;;;;3.02;84.38;98379.99;1503199;94;26037;-76
2022/11/27 03:54:06;;;;;;;33.67;21.40;;;;;;;2.99;84.33;98386.97;1450623;97;27443;-75
2022/11/27 03:56:50;;;;;;;30.40;20.25;;;;;;;2.99;84.39;98384.79;1440749;98;25827;-73
2022/11/27 03:59:29;;;;;;;29.25;19.55;;;;;;;3.01;84.40;98388.16;1434949;98;25877;-75
2022/11/27 04:01:56;;;;;;;27.85;18.15;;;;;;;3.00;84.38;98380.66;1394851;101;26045;-74
2022/11/27 04:04:23;;;;;;;27.70;17.75;;;;;;;2.99;84.36;98388.30;1419358;99;25911;-73
2022/11/27 04:06:49;;;;;;;28.67;18.85;;;;;;;3.01;84.43;98391.67;1434824;95;27380;-73
2022/11/27 04:09:16;;;;;;;27.22;17.65;;;;;;;3.02;84.45;98396.00;1509846;93;25813;-72
2022/11/27 04:11:43;;;;;;;31.05;18.98;;;;;;;2.98;84.38;98393.77;1518662;93;25810;-72
2022/11/27 04:14:10;;;;;;;25.95;16.48;;;;;;;2.92;84.35;98381.82;1518815;93;26543;-75
2022/11/27 04:16:37;;;;;;;23.02;15.40;;;;;;;2.89;84.39;98390.13;1518494;93;25420;-73
2022/11/27 04:19:03;;;;;;;24.25;16.45;;;;;;;2.88;84.46;98385.77;1536923;90;28186;-72
2022/11/27 04:21:30;;;;;;;23.60;16.27;;;;;;;2.90;84.52;98387.78;1566883;90;25798;-73
2022/11/27 04:23:56;;;;;;;23.12;15.05;;;;;;;2.94;84.52;98392.35;1566955;90;25809;-73
2022/11/27 04:26:23;;;;;;;19.75;14.43;;;;;;;2.97;84.46;98390.75;1573941;88;26980;-75
2022/11/27 04:28:50;;;;;;;17.27;12.03;;;;;;;2.94;84.25;98389.69;1617431;87;25920;-73
2022/11/27 04:31:17;;;;;;;19.35;12.13;;;;;;;2.88;84.15;98387.10;1617479;87;28040;-73
2022/11/27 04:33:43;;;;;;;18.55;13.60;;;;;;;2.83;84.04;98382.66;1617309;87;25540;-73
2022/11/27 04:36:10;;;;;;;17.70;11.55;;;;;;;2.81;84.12;98383.29;1617456;87;25839;-71
2022/11/27 04:38:36;;;;;;;16.40;10.32;;;;;;;2.83;84.17;98380.00;1617368;87;26037;-73
2022/11/27 04:41:03;;;;;;;15.03;10.78;;;;;;;2.86;84.19;98386.39;1617519;87;25554;-74
2022/11/27 04:43:29;;;;;;;17.45;10.43;;;;;;;2.90;84.05;98384.63;1617384;87;28173;-73
2022/11/27 04:45:56;;;;;;;14.10;9.05;;;;;;;2.90;83.96;98383.29;1617236;87;25751;-73
2022/11/27 04:48:35;;;;;;;13.60;8.83;;;;;;;3.00;83.90;98380.66;1845150;75;25526;-75
2022/11/27 04:51:02;;;;;;;10.95;8.33;;;;;;;2.96;83.82;98388.57;1839660;77;25757;-74
2022/11/27 04:53:28;;;;;;;12.75;8.85;;;;;;;2.96;83.67;98385.06;1822919;77;27521;-73
2022/11/27 04:55:55;;;;;;;14.60;8.98;;;;;;;2.93;83.48;98386.17;1798191;76;25998;-73
2022/11/27 04:58:22;;;;;;;13.38;9.08;;;;;;;2.88;83.50;98386.61;1798266;77;25703;-75
2022/11/27 05:00:48;;;;;;;19.82;10.30;;;;;;;2.85;83.55;98382.04;1798268;77;26399;-74
2022/11/27 05:03:15;;;;;;;14.68;10.35;;;;;;;2.86;83.59;98383.73;1808434;77;25665;-74
2022/11/27 05:05:42;;;;;;;15.05;9.78;;;;;;;2.85;83.50;98378.88;1798165;77;27536;-73
2022/11/27 05:08:08;;;;;;;17.73;11.30;;;;;;;2.81;83.48;98376.63;1798450;77;25264;-75
2022/11/27 05:10:35;;;;;;;14.90;10.00;;;;;;;2.82;83.51;98378.31;1808027;77;25609;-73
2022/11/27 05:13:01;;;;;;;17.12;11.00;;;;;;;2.80;83.45;98380.27;1798350;76;25985;-74
2022/11/27 05:15:28;;;;;;;14.73;10.38;;;;;;;2.80;83.57;98378.94;1831294;77;25417;-73
2022/11/27 05:17:54;;;;;;;15.90;10.50;;;;;;;2.81;83.47;98385.95;1798284;77;27534;-73
2022/11/27 05:20:21;;;;;;;16.40;11.05;;;;;;;2.79;83.46;98377.25;1798083;76;25640;-75
2022/11/27 05:22:48;;;;;;;15.40;10.75;;;;;;;2.78;83.44;98385.73;1819701;77;25877;-73
2022/11/27 05:25:15;;;;;;;15.20;11.25;;;;;;;2.74;83.28;98379.50;1809463;76;25691;-73
2022/11/27 05:27:41;;;;;;;14.43;10.18;;;;;;;2.70;83.33;98381.59;1798211;76;25881;-73
2022/11/27 05:30:08;;;;;;;16.50;10.65;;;;;;;2.69;83.39;98384.39;1798319;77;27361;-73
2022/11/27 05:32:35;;;;;;;16.12;11.70;;;;;;;2.67;83.42;98381.86;1844725;76;25723;-73
2022/11/27 05:35:02;;;;;;;15.98;11.85;;;;;;;2.65;83.44;98391.85;1845711;77;25660;-73
2022/11/27 05:37:29;;;;;;;14.15;11.12;;;;;;;2.63;83.49;98383.63;1812408;77;25680;-72
2022/11/27 05:39:55;;;;;;;15.63;10.85;;;;;;;2.62;83.54;98384.61;1821955;77;25446;-72
2022/11/27 05:42:22;;;;;;;14.53;10.68;;;;;;;2.61;83.57;98393.58;1831533;77;28181;-73
2022/11/27 05:44:48;;;;;;;15.15;11.28;;;;;;;2.60;83.57;98394.07;1817314;77;25660;-73
2022/11/27 05:47:15;;;;;;;17.55;11.38;;;;;;;2.57;83.59;98395.67;1845282;77;25671;-74
2022/11/27 05:49:41;;;;;;;16.80;11.80;;;;;;;2.57;83.59;98390.83;1845655;77;25716;-73
2022/11/27 05:52:08;;;;;;;15.65;11.73;;;;;;;2.57;83.63;98400.16;1815893;77;26412;-75
2022/11/27 05:54:35;;;;;;;16.15;11.95;;;;;;;2.57;83.70;98403.67;1798219;76;28375;-74
2022/11/27 05:57:01;;;;;;;19.37;12.05;;;;;;;2.58;83.73;98406.69;1831734;77;25667;-75
2022/11/27 05:59:28;;;;;;;17.32;11.50;;;;;;;2.57;83.70;98405.48;1797699;77;25621;-72
2022/11/27 06:01:54;;;;;;;17.48;11.35;;;;;;;2.50;83.63;98403.39;1797390;76;26117;-75
2022/11/27 06:04:21;;;;;;;15.78;11.22;;;;;;;2.47;83.64;98402.31;1797409;77;25734;-75
2022/11/27 06:06:47;;;;;;;19.10;12.93;;;;;;;2.47;83.77;98400.98;1797561;77;28192;-73
2022/11/27 06:09:14;;;;;;;19.65;13.30;;;;;;;2.47;83.86;98396.98;1803974;77;25700;-73
2022/11/27 06:11:41;;;;;;;16.27;11.95;;;;;;;2.48;83.85;98394.67;1804139;77;26864;-73
2022/11/27 06:14:09;;;;;;;21.33;12.45;;;;;;;2.49;83.84;98404.36;1826593;77;25696;-74
2022/11/27 06:16:36;;;;;;;17.30;12.25;;;;;;;2.49;83.85;98398.19;1830640;77;26164;-73
2022/11/27 06:19:03;;;;;;;18.07;13.03;;;;;;;2.49;83.86;98396.37;1830289;77;28037;-72
2022/11/27 06:21:29;;;;;;;20.55;13.25;;;;;;;2.49;83.82;98404.36;1826510;77;25687;-72
2022/11/27 06:23:56;;;;;;;20.70;14.05;;;;;;;2.50;83.81;98402.05;1800877;77;25739;-72
2022/11/27 06:26:27;;;;;;;20.75;14.60;;;;;;;2.51;83.84;98401.56;1822514;77;25639;-75
2022/11/27 06:28:55;;;;;;;20.50;14.60;;;;;;;2.50;83.83;98395.88;1837241;77;26159;-75
2022/11/27 06:31:25;;;;;;;23.20;15.78;;;;;;;2.51;83.84;98401.56;1797562;77;27636;-73
2022/11/27 06:33:54;;;;;;;23.87;15.95;;;;;;;2.51;83.86;98405.56;1797410;77;25753;-73
2022/11/27 06:36:23;;;;;;;28.17;19.15;;;;;;;2.52;83.87;98403.25;1817679;77;25635;-73
2022/11/27 06:38:50;;;;;;;29.57;19.73;;;;;;;2.52;83.87;98406.77;1808940;77;25666;-73
2022/11/27 06:41:20;;;;;;;31.20;21.12;;;;;;;2.53;83.85;98407.12;1814395;77;25732;-75
2022/11/27 06:43:47;;;;;;;35.25;24.87;;;;;;;2.53;83.84;98401.79;1811902;77;28205;-74
2022/11/27 06:46:18;;;;;;;33.63;24.07;;;;;;;2.54;83.83;98406.59;1807328;77;25747;-75
2022/11/27 06:48:47;;;;;;;34.50;23.42;;;;;;;2.54;83.83;98403.44;1804079;76;26437;-73
2022/11/27 06:51:18;;;;;;;32.05;22.32;;;;;;;2.54;83.90;98403.44;1829552;77;25883;-73
2022/11/27 06:53:45;;;;;;;30.27;21.73;;;;;;;2.59;83.92;98402.20;1814616;77;25722;-72
2022/11/27 06:56:18;;;;;;;31.90;22.90;;;;;;;2.61;83.89;98404.24;1806083;77;28188;-75
2022/11/27 06:58:45;;;;;;;31.07;21.62;;;;;;;2.63;83.88;98402.29;1809957;77;25668;-73
2022/11/27 07:01:15;;;;;;;28.05;19.77;;;;;;;2.66;83.88;98399.33;1835607;77;25630;-73
2022/11/27 07:03:43;;;;;;;28.45;18.15;;;;;;;2.68;83.89;98402.70;1807153;77;25795;-73
2022/11/27 07:06:13;;;;;;;23.77;16.23;;;;;;;2.69;83.86;98399.91;1837936;77;25731;-72
2022/11/27 07:08:42;;;;;;;27.15;17.52;;;;;;;2.67;83.75;98401.02;1809389;77;28078;-75
2022/11/27 07:11:22;;;;;;;25.32;17.62;;;;;;;2.65;83.77;98405.67;1812224;77;25821;-73
2022/11/27 07:13:51;;;;;;;26.00;16.67;;;;;;;2.65;83.82;98397.67;1770565;78;25313;-74
2022/11/27 07:16:18;;;;;;;26.27;18.77;;;;;;;2.60;83.81;98399.89;1770397;80;26286;-72
2022/11/27 07:18:49;;;;;;;26.85;17.55;;;;;;;2.58;83.88;98398.69;1776488;78;25451;-73
2022/11/27 07:21:16;;;;;;;28.90;19.42;;;;;;;2.53;83.91;98400.45;1726922;82;27397;-73
2022/11/27 07:23:43;;;;;;;28.92;20.37;;;;;;;2.50;83.93;98396.72;1726204;82;25833;-75
2022/11/27 07:26:14;;;;;;;31.95;20.90;;;;;;;2.53;84.12;98389.80;1726863;82;25556;-76
2022/11/27 07:28:42;;;;;;;33.73;22.35;;;;;;;2.57;84.16;98385.01;1722234;82;25821;-73
2022/11/27 07:31:15;;;;;;;34.53;22.35;;;;;;;2.59;84.08;98380.88;1723201;83;25783;-73
2022/11/27 07:33:42;;;;;;;36.20;24.00;;;;;;;2.59;84.05;98395.53;1719033;81;27479;-73
2022/11/27 07:36:13;;;;;;;37.55;22.77;;;;;;;2.61;84.11;98390.91;1723046;81;25755;-74
2022/11/27 07:38:40;;;;;;;32.28;21.37;;;;;;;2.65;84.14;98381.67;1722217;83;25831;-75
2022/11/27 07:41:07;;;;;;;31.00;20.30;;;;;;;2.67;84.14;98382.35;1723905;83;25737;-75
2022/11/27 07:43:34;;;;;;;29.77;20.17;;;;;;;2.71;84.14;98382.44;1692594;83;25372;-75
2022/11/27 07:46:07;;;;;;;30.88;21.00;;;;;;;2.71;84.04;98382.44;1691297;83;27545;-74
2022/11/27 07:48:34;;;;;;;29.48;21.15;;;;;;;2.72;84.03;98380.97;1643491;87;25827;-73
2022/11/27 07:51:00;;;;;;;36.68;22.35;;;;;;;2.75;84.09;98379.86;1638152;86;25799;-72
2022/11/27 07:53:27;;;;;;;38.35;24.43;;;;;;;2.79;84.07;98387.91;1640015;86;25859;-73
2022/11/27 07:55:53;;;;;;;36.20;24.47;;;;;;;2.81;84.01;98388.62;1641260;87;25767;-74
2022/11/27 07:58:20;;;;;;;32.03;22.02;;;;;;;2.83;83.96;98388.00;1639459;85;27393;-74
2022/11/27 08:00:47;;;;;;;30.35;20.37;;;;;;;2.86;84.01;98385.91;1638113;85;25810;-72
2022/11/27 08:03:15;;;;;;;30.88;21.55;;;;;;;2.89;83.99;98387.45;1634204;85;25790;-73
2022/11/27 08:05:42;;;;;;;41.37;26.52;;;;;;;2.91;83.91;98388.13;1638222;85;25852;-73
2022/11/27 08:08:08;;;;;;;36.15;26.27;;;;;;;2.96;83.92;98387.23;1635396;85;25820;-73
2022/11/27 08:10:37;;;;;;;39.55;27.22;;;;;;;3.00;83.91;98388.66;1654614;84;27544;-72
2022/11/27 08:13:04;;;;;;;37.42;26.33;;;;;;;3.02;83.87;98379.99;1673815;84;25888;-73
2022/11/27 08:15:32;;;;;;;39.60;24.55;;;;;;;3.03;83.83;98383.02;1673629;84;25941;-73
2022/11/27 08:17:59;;;;;;;30.72;20.88;;;;;;;2.96;83.85;98385.91;1700151;82;25325;-73
2022/11/27 08:20:26;;;;;;;34.35;20.70;;;;;;;2.97;83.90;98392.92;1760793;79;25824;-73
2022/11/27 08:22:52;;;;;;;29.35;19.98;;;;;;;2.98;83.87;98389.28;1750037;80;27384;-74
2022/11/27 08:25:19;;;;;;;29.50;18.55;;;;;;;2.96;83.89;98390.39;1736820;80;25724;-73
2022/11/27 08:27:47;;;;;;;28.90;18.07;;;;;;;2.96;83.87;98388.57;1764506;79;25314;-74
2022/11/27 08:30:14;;;;;;;25.65;17.27;;;;;;;2.98;83.93;98390.61;1764378;79;25714;-76
2022/11/27 08:32:42;;;;;;;24.57;16.55;;;;;;;3.02;83.98;98391.19;1743935;80;25843;-74
2022/11/27 08:35:10;;;;;;;24.90;18.23;;;;;;;3.05;83.95;98395.73;1745125;80;28195;-73
2022/11/27 08:37:37;;;;;;;25.90;18.02;;;;;;;3.11;84.00;98402.34;1753924;80;25941;-74
2022/11/27 08:40:06;;;;;;;25.15;17.70;;;;;;;3.15;83.98;98391.72;1743482;81;25756;-75
2022/11/27 08:42:33;;;;;;;34.73;20.10;;;;;;;3.19;83.92;98392.64;1764526;79;25877;-73
2022/11/27 08:45:00;;;;;;;32.53;20.72;;;;;;;3.22;83.88;98391.52;1759739;79;25876;-73
2022/11/27 08:47:26;;;;;;;28.30;19.32;;;;;;;3.24;83.83;98388.23;1765023;78;27374;-73
2022/11/27 08:49:53;;;;;;;26.73;17.42;;;;;;;3.22;83.75;98391.03;1764767;79;26421;-75
2022/11/27 08:52:20;;;;;;;25.62;17.37;;;;;;;3.21;83.79;98388.01;1765295;78;25736;-73
2022/11/27 08:54:47;;;;;;;25.02;17.12;;;;;;;3.21;83.80;98380.01;1786634;78;25733;-73
2022/11/27 08:57:15;;;;;;;29.77;19.05;;;;;;;3.20;83.83;98379.66;1784856;78;25864;-73
2022/11/27 08:59:42;;;;;;;32.73;20.88;;;;;;;3.24;83.88;98376.22;1766602;78;27443;-74
2022/11/27 09:02:12;;;;;;;37.42;23.40;;;;;;;3.27;83.88;98386.59;1765086;79;25753;-73
2022/11/27 09:04:39;;;;;;;36.23;23.27;;;;;;;3.30;83.83;98386.31;1765162;79;25800;-72
2022/11/27 09:07:05;;;;;;;41.73;24.85;;;;;;;3.32;83.75;98388.34;1789476;78;25397;-75
2022/11/27 09:09:31;;;;;;;46.75;26.05;;;;;;;3.35;83.76;98389.90;1777584;78;25763;-75
2022/11/27 09:11:58;;;;;;;37.73;22.32;;;;;;;3.36;83.74;98390.25;1765357;78;27604;-73
2022/11/27 09:14:25;;;;;;;40.75;22.10;;;;;;;3.41;83.71;98383.97;1780924;78;25416;-73
2022/11/27 09:16:52;;;;;;;33.75;20.45;;;;;;;3.44;83.61;98377.87;1793357;78;25708;-73
2022/11/27 09:19:20;;;;;;;36.13;22.32;;;;;;;3.46;83.67;98379.06;1778435;78;25459;-73
2022/11/27 09:21:49;;;;;;;38.33;24.77;;;;;;;3.48;83.71;98375.77;1773585;78;25758;-73
2022/11/27 09:24:16;;;;;;;38.30;25.77;;;;;;;3.52;83.61;98377.14;1817402;77;27459;-72
2022/11/27 09:26:43;;;;;;;40.38;25.25;;;;;;;3.49;83.39;98380.12;1847793;77;25722;-73
2022/11/27 09:29:10;;;;;;;39.15;25.27;;;;;;;3.49;83.40;98373.45;1814252;76;25850;-74
2022/11/27 09:31:36;;;;;;;36.45;23.55;;;;;;;3.51;83.41;98375.45;1847821;77;25707;-74
2022/11/27 09:34:04;;;;;;;38.45;23.60;;;;;;;3.53;83.40;98372.16;1839345;76;25697;-75
2022/11/27 09:36:31;;;;;;;33.35;22.13;;;;;;;3.58;83.43;98372.08;1800767;76;27381;-74
2022/11/27 09:38:59;;;;;;;29.60;19.80;;;;;;;3.63;83.41;98371.14;1800681;76;25744;-72
2022/11/27 09:41:49;;;;;;;30.17;19.77;;;;;;;3.68;83.33;98369.87;1800794;77;25669;-73
2022/11/27 09:44:33;;;;;;;24.90;17.32;;;;;;;3.70;83.26;98363.41;1765217;79;25740;-75
2022/11/27 09:47:07;;;;;;;28.30;17.48;;;;;;;3.74;83.24;98372.83;1765199;80;25733;-74
2022/11/27 09:49:42;;;;;;;29.40;19.50;;;;;;;3.77;83.08;98375.19;1767373;80;28358;-73
2022/11/27 09:52:29;;;;;;;27.00;16.60;;;;;;;3.79;83.07;98378.56;1744634;81;25857;-72
2022/11/27 09:55:03;;;;;;;23.12;14.30;;;;;;;3.83;83.09;98365.27;1692884;84;25881;-72
2022/11/27 09:57:35;;;;;;;16.40;10.93;;;;;;;3.86;82.88;98363.66;1694109;83;25680;-73
2022/11/27 10:00:16;;;;;;;16.17;10.20;;;;;;;3.90;82.79;98353.00;1696931;84;25773;-71
2022/11/27 10:02:43;;;;;;;21.42;12.60;;;;;;;3.93;82.66;98353.20;1696511;84;27395;-73
2022/11/27 10:05:21;;;;;;;22.07;13.85;;;;;;;3.96;82.67;98354.27;1696323;84;25824;-72
2022/11/27 10:08:14;;;;;;;16.55;11.70;;;;;;;3.98;82.68;98347.76;1694677;83;25877;-73
2022/11/27 10:11:14;;;;;;;21.90;13.58;;;;;;;3.99;82.56;98346.77;1678724;84;25628;-73
2022/11/27 10:14:31;;;;;;;22.45;14.07;;;;;;;3.99;82.49;98349.44;1693786;84;25806;-73
2022/11/27 10:17:19;;;;;;;20.17;14.65;;;;;;;4.02;82.47;98343.47;1695928;84;27458;-73
2022/11/27 10:20:06;;;;;;;25.45;15.35;;;;;;;4.04;82.37;98346.34;1696155;84;26558;-73
2022/11/27 10:22:44;;;;;;;27.37;17.48;;;;;;;4.04;82.30;98344.16;1724691;83;25867;-73
2022/11/27 10:25:21;;;;;;;24.98;15.90;;;;;;;4.06;82.31;98340.86;1720769;83;25500;-73
2022/11/27 10:28:23;;;;;;;45.10;25.60;;;;;;;4.07;82.28;98340.71;1725369;83;26621;-72
2022/11/27 10:30:58;;;;;;;44.58;25.75;;;;;;;4.05;82.33;98341.84;1697293;84;28740;-75
2022/11/27 10:33:30;;;;;;;33.80;21.10;;;;;;;4.07;82.55;98342.54;1697026;84;25872;-73
2022/11/27 10:35:59;;;;;;;33.83;20.27;;;;;;;4.11;82.54;98343.41;1673317;84;25708;-73
2022/11/27 10:38:29;;;;;;;33.02;20.45;;;;;;;4.16;82.50;98339.81;1696912;84;25884;-73
2022/11/27 10:41:13;;;;;;;32.80;20.65;;;;;;;4.17;82.44;98336.65;1672818;84;25926;-72
2022/11/27 10:43:40;;;;;;;29.95;18.67;;;;;;;4.19;82.50;98341.36;1692337;84;27488;-73
2022/11/27 10:46:18;;;;;;;31.05;18.40;;;;;;;4.17;82.34;98339.32;1689074;84;25735;-72
2022/11/27 10:48:44;;;;;;;28.98;17.20;;;;;;;4.11;82.23;98334.55;1707624;80;25330;-75
2022/11/27 10:51:18;;;;;;;25.05;17.35;;;;;;;4.02;82.15;98334.11;1757205;80;25824;-72
2022/11/27 10:53:49;;;;;;;25.57;17.37;;;;;;;3.97;82.24;98332.75;1760982;80;25793;-72
2022/11/27 10:56:24;;;;;;;25.17;16.73;;;;;;;3.98;82.47;98326.39;1767130;80;27389;-73
2022/11/27 10:59:00;;;;;;;25.02;15.65;;;;;;;4.02;82.37;98326.94;1744546;80;25775;-72
2022/11/27 11:01:31;;;;;;;22.17;14.18;;;;;;;4.02;82.19;98322.09;1748399;80;25756;-74
2022/11/27 11:04:07;;;;;;;24.30;16.20;;;;;;;4.04;82.21;98324.13;1761259;79;25767;-73
2022/11/27 11:06:41;;;;;;;29.80;20.85;;;;;;;4.08;82.15;98324.19;1804688;79;26012;-74
2022/11/27 11:09:29;;;;;;;30.90;19.23;;;;;;;4.12;82.06;98316.20;1748124;81;27397;-75
2022/11/27 11:12:17;;;;;;;25.50;17.67;;;;;;;4.13;81.92;98316.05;1734932;82;25887;-73
2022/11/27 11:14:56;;;;;;;24.10;18.45;;;;;;;4.09;81.84;98313.84;1733160;82;25381;-75
2022/11/27 11:17:36;;;;;;;30.75;21.65;;;;;;;4.06;81.83;98304.78;1734684;82;26385;-75
2022/11/27 11:20:21;;;;;;;31.27;20.35;;;;;;;4.00;81.71;98304.87;1675863;84;26005;-75
2022/11/27 11:22:48;;;;;;;31.55;21.33;;;;;;;4.02;81.82;98300.72;1618722;87;27408;-73
2022/11/27 11:25:20;;;;;;;31.42;20.57;;;;;;;4.05;81.86;98306.61;1618679;87;25831;-76
2022/11/27 11:27:50;;;;;;;30.50;21.05;;;;;;;4.08;81.82;98305.48;1618641;87;25945;-75
2022/11/27 11:30:24;;;;;;;30.55;21.40;;;;;;;4.13;81.94;98296.51;1619156;87;26803;-73
2022/11/27 11:33:01;;;;;;;29.67;20.62;;;;;;;4.19;82.00;98295.92;1537019;92;25607;-73
2022/11/27 11:35:34;;;;;;;26.15;18.15;;;;;;;4.24;81.90;98297.14;1535864;92;27436;-75
2022/11/27 11:38:06;;;;;;;27.40;18.95;;;;;;;4.30;81.75;98290.37;1534875;92;25807;-73
2022/11/27 11:40:36;;;;;;;25.57;18.62;;;;;;;4.31;81.36;98292.05;1535154;92;25884;-73
2022/11/27 11:43:10;;;;;;;47.67;29.65;;;;;;;4.31;81.26;98290.22;1535210;92;25396;-73